Airfield :
LOGIN :

Register | Disclaimer

   EN    FR    IT 

 










Legend :    VFR   Marginal VFR   IFR   Intensive IFR   Very Intensive IFR
Visi :
Ceiling :
>= 8 km
>= 3000ft
5 to 8 km
1000 to 3000 ft
1500m to 5 km
500 to 1000 ft
800 to 1500m
200 to 500 ft
< 800m
< 200 ft
Symbols :   Thunderstorms  Fog  Heavy snow  Heavy precipitations  Wind > 20 kt
SIGMETs :     Misc.  Thunderstorms  Icing  Turbulence  Mountain Waves  Volcanic Ashes






- Airport Elevation : 13 ft
- IATA code : LYX


EGMD - Lydd

CURRENT METAR :
  • 080550Z AUTO 34004KT 9000 NCD 08/07 Q1025

EXPIRED METARs :
  • 080520Z AUTO 33005KT 9999 NCD 08/07 Q1024
  • 080450Z AUTO 33006KT 9999 NCD 08/07 Q1024
  • 080420Z AUTO 34006KT 9999 NCD 07/06 Q1025
  • 080350Z AUTO 36004KT 330V040 9999 NCD 08/07 Q1025
  • 080320Z AUTO 05004KT 9999 NCD 09/07 Q1024

TAF TAF EGMD
Valid from the 08 at 06:00 until the 08 at 15:00 UTC


080459Z 0806/0815 12008KT CAVOK
PROB40
TEMPO 0806/0808 7000
ATIS : +44 1797 322 422



MET'MAP, your aeronautical weather chart ! - Copyright ORBIFLY December 2007 - Disclaimer

ORBIFLY MET'MAP TEAM :

Programming & Development : Alexandra Zaïnal
Concept & original design : Baudouin d'Aumeries
Assistance for programming : Marc-Olivier Méhu
Technical & hardware support : Manuel Goepfert

Contact : metmap@orbifly.com




SOURCES & CREDITS :

   NOAA